createdAt,value
2019-05-01T00:02:17.808Z,1.20
2019-05-01T00:07:22.900Z,1.12
2019-05-01T00:12:26.530Z,1.22
2019-05-01T00:17:30.502Z,1.30
2019-05-01T00:22:33.960Z,1.40
2019-05-01T00:27:37.415Z,1.32
2019-05-01T00:32:40.878Z,1.22
2019-05-01T00:37:44.338Z,1.10
2019-05-01T00:42:47.803Z,1.30
2019-05-01T00:47:51.261Z,1.40
2019-05-01T00:52:54.782Z,0.88
2019-05-01T00:58:08.682Z,1.30
2019-05-01T01:03:12.153Z,1.02
2019-05-01T01:08:15.977Z,1.27
2019-05-01T01:13:19.441Z,1.22
2019-05-01T01:18:22.897Z,1.05
2019-05-01T01:23:26.721Z,1.40
2019-05-01T01:28:30.316Z,1.10
2019-05-01T01:33:33.844Z,1.10
2019-05-01T01:38:37.305Z,1.20
2019-05-01T01:43:42.573Z,1.00
2019-05-01T01:48:46.311Z,1.20
2019-05-01T01:53:52.077Z,1.25
2019-05-01T01:58:56.373Z,1.30
2019-05-01T02:04:01.914Z,1.12
2019-05-01T02:09:08.014Z,1.10
2019-05-01T02:14:11.482Z,0.98
2019-05-01T02:19:14.939Z,1.20
2019-05-01T02:24:18.400Z,1.30
2019-05-01T02:29:27.310Z,0.90
2019-05-01T02:34:31.505Z,1.25
2019-05-01T02:39:36.611Z,1.37
2019-05-01T02:44:48.916Z,1.60
2019-05-01T02:49:55.146Z,0.85
2019-05-01T02:55:02.989Z,1.37
2019-05-01T03:00:07.153Z,1.00
2019-05-01T03:05:10.947Z,1.17
2019-05-01T03:10:14.747Z,1.50
2019-05-01T03:15:21.090Z,1.20
2019-05-01T03:20:29.245Z,1.30
2019-05-01T03:25:32.773Z,1.52
2019-05-01T03:30:36.472Z,1.70
2019-05-01T03:35:40.478Z,1.20
2019-05-01T03:40:44.206Z,1.75
2019-05-01T03:45:48.443Z,1.30
2019-05-01T03:50:52.073Z,1.22
2019-05-01T03:55:55.700Z,1.50
2019-05-01T04:01:13.287Z,1.37
2019-05-01T04:06:16.827Z,1.32
2019-05-01T04:11:20.622Z,0.90
2019-05-01T04:16:24.261Z,1.40
2019-05-01T04:21:29.367Z,1.32
2019-05-01T04:26:33.018Z,1.10
2019-05-01T04:31:46.210Z,1.30
2019-05-01T04:37:05.682Z,1.42
2019-05-01T04:42:09.752Z,1.05
2019-05-01T04:47:14.419Z,1.40
2019-05-01T04:52:17.883Z,1.10
2019-05-01T04:57:21.581Z,1.50
2019-05-01T05:02:29.536Z,1.42
2019-05-01T05:07:33.075Z,1.27
2019-05-01T05:12:44.833Z,1.40
2019-05-01T05:17:48.461Z,1.30
2019-05-01T05:22:52.373Z,1.35
2019-05-01T05:27:57.474Z,1.55
2019-05-01T05:33:17.173Z,1.30
2019-05-01T05:38:12.301Z,1.17
2019-05-01T05:43:16.230Z,1.10
2019-05-01T05:48:20.030Z,1.32
2019-05-01T05:53:29.652Z,1.17
2019-05-01T05:58:36.630Z,1.10
2019-05-01T06:03:52.876Z,1.35
2019-05-01T06:08:59.617Z,1.30
2019-05-01T06:14:05.255Z,1.30
2019-05-01T06:19:25.631Z,1.55
2019-05-01T06:24:35.777Z,1.40
2019-05-01T06:29:37.626Z,1.35
2019-05-01T06:34:41.354Z,1.15
2019-05-01T06:39:48.002Z,1.30
2019-05-01T06:44:58.115Z,1.17
2019-05-01T06:50:07.812Z,1.10
2019-05-01T06:55:11.586Z,1.22
2019-05-01T07:00:17.532Z,1.10
2019-05-01T07:05:21.925Z,3.03
2019-05-01T07:10:31.651Z,12.82
2019-05-01T07:15:32.373Z,15.78
2019-05-01T07:20:47.280Z,14.70
2019-05-01T07:25:51.782Z,14.43
2019-05-01T07:30:57.222Z,13.62
2019-05-01T07:36:01.236Z,12.50
2019-05-01T07:41:05.231Z,12.55
2019-05-01T07:46:19.593Z,12.23
2019-05-01T07:51:23.284Z,10.70
2019-05-01T07:56:28.286Z,11.97
2019-05-01T08:01:33.583Z,11.30
2019-05-01T08:06:37.052Z,10.45
2019-05-01T08:11:44.202Z,10.63
2019-05-01T08:16:45.721Z,11.65
2019-05-01T08:21:50.832Z,10.48
2019-05-01T08:26:54.305Z,10.55
2019-05-01T08:32:15.888Z,10.35
2019-05-01T08:37:22.559Z,10.38
2019-05-01T08:42:24.720Z,10.68
2019-05-01T08:47:29.828Z,11.22
2019-05-01T08:52:33.472Z,12.73
2019-05-01T08:57:39.323Z,11.65
2019-05-01T09:02:43.472Z,13.05
2019-05-01T09:07:51.128Z,12.45
2019-05-01T09:12:52.244Z,12.20
2019-05-01T09:17:55.728Z,12.13
2019-05-01T09:22:59.215Z,13.40
2019-05-01T09:28:16.446Z,14.00
2019-05-01T09:33:19.926Z,13.13
2019-05-01T09:38:23.412Z,14.07
2019-05-01T09:43:30.930Z,13.18
2019-05-01T09:48:32.413Z,14.07
2019-05-01T09:53:43.487Z,14.07
2019-05-01T09:58:46.970Z,14.53
2019-05-01T10:03:54.675Z,14.73
2019-05-01T10:08:55.658Z,14.50
2019-05-01T10:13:59.727Z,14.15
2019-05-01T10:19:03.305Z,13.38
2019-05-01T10:24:06.790Z,14.40
2019-05-01T10:29:21.387Z,14.58
2019-05-01T10:34:33.102Z,13.80
2019-05-01T10:39:36.578Z,13.62
2019-05-01T10:44:40.063Z,13.10
2019-05-01T10:49:43.615Z,12.37
2019-05-01T10:54:47.089Z,13.28
2019-05-01T10:59:50.566Z,12.65
2019-05-01T11:04:54.042Z,11.48
2019-05-01T11:09:57.523Z,10.00
2019-05-01T11:15:01.003Z,10.40
2019-05-01T11:20:06.723Z,10.98
2019-05-01T11:25:10.837Z,11.03
2019-05-01T11:30:15.328Z,11.37
2019-05-01T11:35:29.297Z,10.60
2019-05-01T11:40:37.103Z,10.13
2019-05-01T11:45:40.569Z,11.18
2019-05-01T11:50:44.032Z,10.08
2019-05-01T11:55:47.499Z,10.55
2019-05-01T12:00:52.607Z,11.18
2019-05-01T12:05:56.298Z,9.75
2019-05-01T12:11:00.530Z,10.28
2019-05-01T12:16:05.635Z,10.20
2019-05-01T12:21:09.093Z,9.73
2019-05-01T12:26:12.555Z,9.15
2019-05-01T12:31:16.021Z,8.68
2019-05-01T12:36:19.480Z,9.50
2019-05-01T12:41:27.248Z,8.40
2019-05-01T12:46:34.902Z,8.90
2019-05-01T12:51:39.434Z,7.67
2019-05-01T12:56:58.901Z,7.53
2019-05-01T13:02:02.358Z,8.13
2019-05-01T13:07:06.087Z,5.75
2019-05-01T13:12:09.547Z,8.30
2019-05-01T13:17:13.005Z,6.42
2019-05-01T13:22:16.462Z,6.90
2019-05-01T13:27:24.642Z,6.65
2019-05-01T13:32:41.737Z,6.28
2019-05-01T13:37:45.198Z,6.42
2019-05-01T13:42:48.659Z,5.78
2019-05-01T13:47:54.406Z,5.15
2019-05-01T13:52:58.179Z,5.00
2019-05-01T13:58:01.635Z,5.78
2019-05-01T14:03:05.264Z,6.20
2019-05-01T14:08:08.716Z,6.33
2019-05-01T14:13:12.345Z,7.50
2019-05-01T14:18:15.805Z,6.17
2019-05-01T14:23:30.099Z,7.25
2019-05-01T14:28:35.832Z,8.23
2019-05-01T14:33:39.294Z,6.50
2019-05-01T14:38:42.747Z,5.72
2019-05-01T14:43:46.212Z,6.03
2019-05-01T14:48:49.664Z,6.58
2019-05-01T14:53:53.121Z,6.00
2019-05-01T14:58:56.577Z,5.60
2019-05-01T15:04:00.032Z,4.65
2019-05-01T15:09:05.127Z,5.00
2019-05-01T15:14:12.725Z,5.03
2019-05-01T15:19:20.472Z,5.58
2019-05-01T15:24:23.934Z,4.20
2019-05-01T15:29:27.389Z,5.55
2019-05-01T15:34:30.851Z,5.05
2019-05-01T15:39:35.949Z,5.58
2019-05-01T15:44:41.047Z,5.33
2019-05-01T15:49:44.502Z,5.00
2019-05-01T15:54:47.955Z,4.93
2019-05-01T15:59:51.412Z,5.05
2019-05-01T16:04:54.868Z,5.12
2019-05-01T16:09:58.319Z,5.05
2019-05-01T16:15:01.785Z,4.45
2019-05-01T16:20:07.501Z,4.72
2019-05-01T16:25:11.188Z,4.97
2019-05-01T16:30:16.626Z,4.20
2019-05-01T16:35:20.082Z,4.67
2019-05-01T16:40:28.261Z,4.28
2019-05-01T16:45:31.721Z,4.58
2019-05-01T16:50:35.177Z,4.20
2019-05-01T16:55:38.635Z,4.10
2019-05-01T17:01:04.292Z,4.80
2019-05-01T17:06:21.404Z,4.60
2019-05-01T17:11:26.566Z,4.25
2019-05-01T17:16:30.030Z,4.28
2019-05-01T17:21:33.485Z,4.62
2019-05-01T17:26:36.940Z,4.60
2019-05-01T17:31:40.396Z,4.37
2019-05-01T17:36:43.854Z,4.17
2019-05-01T17:41:47.315Z,4.20
2019-05-01T17:46:50.784Z,4.65
2019-05-01T17:51:54.244Z,4.12
2019-05-01T17:56:57.697Z,4.72
2019-05-01T18:02:05.372Z,4.55
2019-05-01T18:07:07.972Z,4.85
2019-05-01T18:12:11.456Z,4.85
2019-05-01T18:17:14.979Z,4.83
2019-05-01T18:22:37.249Z,4.80
2019-05-01T18:27:41.629Z,4.60
2019-05-01T18:32:47.462Z,4.83
2019-05-01T18:37:51.985Z,4.95
2019-05-01T18:42:55.441Z,4.33
2019-05-01T18:47:58.900Z,4.30
2019-05-01T18:53:02.356Z,4.37
2019-05-01T18:58:06.050Z,3.30
2019-05-01T19:03:09.574Z,3.83
2019-05-01T19:08:13.022Z,3.98
2019-05-01T19:13:16.753Z,4.00
2019-05-01T19:18:20.200Z,3.67
2019-05-01T19:23:27.957Z,4.35
2019-05-01T19:28:27.983Z,3.85
2019-05-01T19:33:31.375Z,3.50
2019-05-01T19:38:36.998Z,3.58
2019-05-01T19:43:42.109Z,3.33
2019-05-01T19:48:50.849Z,3.65
2019-05-01T19:53:51.769Z,3.83
2019-05-01T19:58:56.193Z,3.80
2019-05-01T20:03:59.593Z,4.28
2019-05-01T20:09:04.690Z,3.70
2019-05-01T20:14:08.146Z,3.77
2019-05-01T20:19:11.670Z,3.90
2019-05-01T20:24:15.124Z,3.35
2019-05-01T20:29:18.582Z,3.98
2019-05-01T20:34:22.043Z,3.62
2019-05-01T20:39:25.500Z,3.70
2019-05-01T20:44:28.952Z,3.62
2019-05-01T20:49:36.522Z,3.52
2019-05-01T20:54:37.589Z,3.08
2019-05-01T20:59:41.048Z,3.15
2019-05-01T21:04:46.144Z,3.47
2019-05-01T21:09:57.900Z,3.17
2019-05-01T21:14:58.876Z,3.58
2019-05-01T21:20:03.786Z,3.42
2019-05-01T21:25:07.541Z,3.33
2019-05-01T21:30:11.131Z,3.50
2019-05-01T21:35:14.590Z,3.15
2019-05-01T21:40:18.059Z,3.37
2019-05-01T21:45:22.962Z,3.35
2019-05-01T21:50:26.722Z,3.37
2019-05-01T21:55:32.044Z,2.62
2019-05-01T22:00:39.663Z,2.87
2019-05-01T22:05:43.119Z,3.40
2019-05-01T22:10:52.233Z,2.90
2019-05-01T22:16:09.803Z,3.27
2019-05-01T22:21:17.594Z,3.42
2019-05-01T22:26:21.420Z,3.65
2019-05-01T22:31:26.518Z,2.90
2019-05-01T22:36:29.970Z,2.65
2019-05-01T22:41:33.428Z,2.75
2019-05-01T22:46:39.022Z,2.77
2019-05-01T22:51:42.067Z,3.27
2019-05-01T22:56:45.521Z,3.10
2019-05-01T23:01:52.999Z,2.92
2019-05-01T23:06:55.793Z,2.62
2019-05-01T23:11:59.321Z,3.05
2019-05-01T23:17:05.183Z,2.60
2019-05-01T23:22:08.720Z,2.75
2019-05-01T23:27:12.177Z,3.30
2019-05-01T23:32:15.632Z,2.77
2019-05-01T23:37:19.090Z,2.55
2019-05-01T23:42:22.545Z,3.10
2019-05-01T23:47:25.999Z,2.60
2019-05-01T23:52:29.457Z,2.62
2019-05-01T23:57:34.188Z,2.65
